Time;durP1;ratioP1;P1;durP2;ratioP2;P2;SDS_P1;SDS_P2;PMS_P1;PMS_P2;Temp;Humidity;BMP_temperature;BMP_pressure;BME280_temperature;BME280_humidity;BME280_pressure;Samples;Min_cycle;Max_cycle;Signal;HPM_P1;HPM_P2
2024/01/27 00:04:40;;;;;;;3.42;1.40;;;;;;;17.39;49.29;102872.69;20991196;28;20110;-64
2024/01/27 00:14:43;;;;;;;3.38;1.60;;;;;;;17.40;49.10;102861.81;21019086;28;20062;-63
2024/01/27 00:24:45;;;;;;;3.47;1.25;;;;;;;17.43;48.84;102886.81;21052658;28;20051;-63
2024/01/27 00:34:47;;;;;;;3.22;1.13;;;;;;;17.42;48.79;102896.75;21016867;28;20048;-63
2024/01/27 00:44:49;;;;;;;3.95;1.35;;;;;;;17.44;48.64;102896.66;21049146;28;20079;-63
2024/01/27 00:54:51;;;;;;;3.70;1.50;;;;;;;17.44;48.41;102888.56;21009115;28;20135;-63
2024/01/27 01:04:53;;;;;;;4.90;1.55;;;;;;;17.43;48.53;102890.41;21007019;28;20076;-62
2024/01/27 01:14:55;;;;;;;5.80;1.80;;;;;;;17.41;48.40;102900.41;20989906;28;20055;-63
2024/01/27 01:24:56;;;;;;;4.47;2.10;;;;;;;17.43;48.20;102908.38;20990744;28;20109;-62
2024/01/27 01:34:58;;;;;;;3.72;1.65;;;;;;;17.34;48.49;102913.31;20990049;27;20053;-63
2024/01/27 01:45:00;;;;;;;5.30;1.75;;;;;;;17.21;48.70;102905.03;20991788;28;20082;-62
2024/01/27 01:55:02;;;;;;;3.90;1.10;;;;;;;17.15;48.66;102921.50;20989104;28;20420;-63
2024/01/27 02:05:04;;;;;;;4.65;1.40;;;;;;;17.12;48.78;102923.50;20991561;27;20500;-63
2024/01/27 02:15:10;;;;;;;3.10;1.02;;;;;;;17.14;48.77;102926.97;21006677;28;20051;-63
2024/01/27 02:25:12;;;;;;;3.17;1.45;;;;;;;17.16;48.60;102917.00;20975236;28;20044;-62
2024/01/27 02:35:14;;;;;;;2.83;1.35;;;;;;;17.04;48.65;102900.56;21016894;28;20481;-63
2024/01/27 02:45:16;;;;;;;4.22;1.13;;;;;;;17.15;48.33;102912.56;21039958;28;20078;-62
2024/01/27 02:55:18;;;;;;;3.28;1.15;;;;;;;17.17;48.43;102924.13;20988235;28;20056;-63
2024/01/27 03:05:20;;;;;;;3.38;1.00;;;;;;;17.22;48.10;102930.97;20979847;28;20483;-63
2024/01/27 03:15:22;;;;;;;2.22;0.98;;;;;;;17.33;47.88;102924.19;21004695;28;20508;-63
2024/01/27 03:25:25;;;;;;;3.92;1.15;;;;;;;17.41;47.51;102930.00;21014462;28;20048;-63
2024/01/27 03:35:27;;;;;;;3.35;1.17;;;;;;;17.46;47.30;102933.31;20954413;28;20048;-62
2024/01/27 03:45:29;;;;;;;3.13;1.40;;;;;;;17.51;47.16;102930.38;20962557;28;20715;-63
2024/01/27 03:55:31;;;;;;;3.15;1.27;;;;;;;17.51;47.02;102936.63;20987135;28;20079;-63
2024/01/27 04:05:33;;;;;;;2.78;1.20;;;;;;;17.51;46.82;102942.00;21025325;28;20515;-63
2024/01/27 04:15:38;;;;;;;4.13;1.52;;;;;;;17.50;46.80;102934.88;20997294;28;20500;-63
2024/01/27 04:25:41;;;;;;;2.92;1.23;;;;;;;17.48;46.90;102942.19;20960193;28;20056;-62
2024/01/27 04:35:42;;;;;;;4.22;1.33;;;;;;;17.48;46.73;102947.56;20978580;28;20048;-63
2024/01/27 04:45:44;;;;;;;2.13;1.13;;;;;;;17.51;46.47;102955.47;21011642;28;20055;-63
2024/01/27 04:55:46;;;;;;;4.35;1.20;;;;;;;17.46;46.31;102949.47;21005992;28;20127;-63
2024/01/27 05:05:48;;;;;;;3.05;1.52;;;;;;;17.48;46.44;102931.41;21008101;28;20061;-63
2024/01/27 05:15:50;;;;;;;3.50;1.50;;;;;;;17.47;46.46;102929.66;21007456;28;20063;-62
2024/01/27 05:25:51;;;;;;;2.58;1.30;;;;;;;17.50;46.39;102923.25;21042431;28;20489;-63
2024/01/27 05:35:53;;;;;;;3.28;1.42;;;;;;;17.49;46.36;102935.84;21014265;28;20056;-63
2024/01/27 05:45:55;;;;;;;3.40;1.50;;;;;;;17.29;46.70;102944.16;21012233;28;20060;-63
2024/01/27 05:55:57;;;;;;;3.38;1.30;;;;;;;17.21;46.80;102961.53;21001851;28;20044;-63
2024/01/27 06:05:59;;;;;;;3.63;1.48;;;;;;;17.17;46.83;102956.44;21017909;28;20470;-62
2024/01/27 06:16:01;;;;;;;3.88;1.20;;;;;;;17.14;47.01;102975.44;21045118;28;20056;-63
2024/01/27 06:26:09;;;;;;;4.10;1.80;;;;;;;17.13;46.91;102988.00;21045341;28;20101;-62
2024/01/27 06:36:10;;;;;;;3.72;1.30;;;;;;;17.02;46.83;102950.03;21043675;28;20048;-62
2024/01/27 06:46:13;;;;;;;3.47;1.38;;;;;;;17.13;46.74;102988.00;21026063;28;20055;-63
2024/01/27 06:56:14;;;;;;;5.50;1.67;;;;;;;17.15;46.76;103004.09;21024477;28;20059;-62
2024/01/27 07:06:16;;;;;;;2.85;1.30;;;;;;;17.18;47.02;103003.91;21010851;28;20067;-62
2024/01/27 07:16:19;;;;;;;2.97;1.30;;;;;;;17.28;46.50;103015.09;20987184;28;20127;-62
2024/01/27 07:26:21;;;;;;;2.72;1.10;;;;;;;17.33;46.28;103000.41;20982060;28;20067;-63
2024/01/27 07:36:23;;;;;;;4.28;1.98;;;;;;;17.41;46.23;103010.78;20987007;28;20048;-63
2024/01/27 07:46:25;;;;;;;2.83;1.40;;;;;;;17.47;45.90;103010.47;20981425;28;20061;-62
2024/01/27 07:56:27;;;;;;;3.03;1.30;;;;;;;17.54;45.84;103019.94;20979731;28;20093;-63
2024/01/27 08:06:29;;;;;;;2.53;1.13;;;;;;;17.59;45.91;103018.81;20986263;28;20125;-63
2024/01/27 08:16:32;;;;;;;2.17;1.08;;;;;;;17.65;46.09;103040.91;20992755;28;20043;-63
2024/01/27 08:26:33;;;;;;;3.25;1.20;;;;;;;17.80;46.01;103033.84;21056126;28;20127;-63
2024/01/27 08:36:35;;;;;;;3.75;1.30;;;;;;;18.10;45.53;103046.59;21054612;28;20572;-63
2024/01/27 08:46:37;;;;;;;3.13;1.38;;;;;;;18.35;45.31;103057.84;21054305;28;20420;-63
2024/01/27 08:56:40;;;;;;;3.08;1.48;;;;;;;18.58;44.87;103059.25;21053455;28;20052;-63
2024/01/27 09:06:42;;;;;;;3.25;1.20;;;;;;;18.96;44.45;103075.00;21052420;28;20457;-64
2024/01/27 09:16:45;;;;;;;2.75;1.05;;;;;;;19.13;44.50;103071.34;21051800;28;20564;-63
2024/01/27 09:26:47;;;;;;;3.50;1.52;;;;;;;19.26;43.93;103076.03;21050301;28;20044;-63
2024/01/27 09:36:49;;;;;;;2.72;1.30;;;;;;;19.46;43.93;103093.72;21049142;28;20479;-63
2024/01/27 09:46:50;;;;;;;3.85;1.50;;;;;;;19.46;43.91;103099.13;21049630;28;20128;-63
2024/01/27 09:56:54;;;;;;;3.50;1.25;;;;;;;19.38;43.93;103066.28;21046916;28;20078;-64
2024/01/27 10:06:57;;;;;;;3.03;1.20;;;;;;;19.49;44.37;103085.44;21048309;28;20122;-63
2024/01/27 10:16:59;;;;;;;3.40;1.45;;;;;;;19.52;44.12;103084.38;21046861;28;20055;-63
2024/01/27 10:27:03;;;;;;;2.80;1.25;;;;;;;19.50;44.49;103092.56;21045258;28;20048;-63
2024/01/27 10:37:05;;;;;;;2.72;1.25;;;;;;;19.52;44.63;103095.16;21044952;28;20054;-63
2024/01/27 10:47:10;;;;;;;3.35;1.52;;;;;;;19.56;44.68;103089.50;21044070;28;20070;-63
2024/01/27 10:57:12;;;;;;;3.03;1.30;;;;;;;19.52;44.86;103087.06;21042304;28;20418;-63
2024/01/27 11:07:14;;;;;;;4.13;1.50;;;;;;;19.64;44.66;103099.81;21043506;28;20044;-63
2024/01/27 11:17:16;;;;;;;3.92;1.42;;;;;;;19.72;44.71;103099.34;21041477;28;20101;-63
2024/01/27 11:27:18;;;;;;;2.50;1.05;;;;;;;19.76;44.87;103114.41;21032620;28;20053;-64
2024/01/27 11:37:24;;;;;;;5.13;1.35;;;;;;;19.82;44.96;103107.75;20957337;28;20133;-63
2024/01/27 11:47:26;;;;;;;3.75;1.35;;;;;;;19.86;44.88;103110.16;20957737;28;20397;-63
2024/01/27 11:57:28;;;;;;;3.33;1.25;;;;;;;19.90;44.91;103112.69;20956210;28;20086;-63
2024/01/27 12:07:31;;;;;;;2.65;1.10;;;;;;;19.78;44.94;103096.25;20956664;28;20622;-64
2024/01/27 12:17:34;;;;;;;2.63;1.15;;;;;;;19.91;45.23;103109.91;21010208;28;20105;-63
2024/01/27 12:27:36;;;;;;;3.17;1.25;;;;;;;19.93;45.26;103104.44;20984192;28;20056;-63
2024/01/27 12:37:38;;;;;;;2.67;1.10;;;;;;;19.90;45.18;103100.06;21001350;28;20052;-63
2024/01/27 12:47:40;;;;;;;3.42;1.33;;;;;;;19.88;45.27;103109.19;21005822;28;20044;-64
2024/01/27 12:57:42;;;;;;;2.03;1.10;;;;;;;19.84;45.34;103095.03;20985744;28;20515;-64
2024/01/27 13:07:45;;;;;;;2.47;1.20;;;;;;;19.83;45.38;103093.28;20991427;28;20072;-64
2024/01/27 13:17:46;;;;;;;4.03;1.15;;;;;;;19.80;45.49;103094.31;20992464;28;20130;-63
2024/01/27 13:27:48;;;;;;;3.40;1.52;;;;;;;19.73;45.84;103098.38;20989670;28;20082;-64
2024/01/27 13:37:50;;;;;;;3.83;2.20;;;;;;;19.73;46.28;103116.44;20981047;28;20048;-64
2024/01/27 13:47:52;;;;;;;2.97;1.10;;;;;;;19.74;46.39;103112.78;21015538;27;20136;-65
2024/01/27 13:57:54;;;;;;;2.90;1.30;;;;;;;19.70;46.58;103109.38;20981025;28;20138;-66
2024/01/27 14:07:56;;;;;;;3.50;1.20;;;;;;;19.70;46.83;103098.56;20985635;28;20067;-64
2024/01/27 14:17:58;;;;;;;2.72;1.20;;;;;;;19.76;46.82;103108.16;20968033;28;20090;-64
2024/01/27 14:28:00;;;;;;;3.95;1.30;;;;;;;19.83;46.85;103109.50;20965625;28;20470;-68
2024/01/27 14:38:02;;;;;;;4.28;1.27;;;;;;;20.00;46.76;103120.16;20952877;28;20072;-69
2024/01/27 14:48:04;;;;;;;4.38;1.67;;;;;;;20.08;46.55;103107.97;20962421;28;20052;-70
2024/01/27 14:58:07;;;;;;;2.65;1.52;;;;;;;20.09;46.46;103110.59;20968328;28;20048;-70
2024/01/27 15:08:09;;;;;;;3.13;1.30;;;;;;;20.13;46.22;103120.25;20974921;28;20104;-68
2024/01/27 15:18:12;;;;;;;3.47;1.70;;;;;;;20.02;46.27;103094.84;20969789;28;20417;-71
2024/01/27 15:28:14;;;;;;;7.88;3.10;;;;;;;20.10;47.66;103112.34;20989196;27;20055;-70
2024/01/27 15:38:16;;;;;;;7.03;2.60;;;;;;;20.13;48.37;103101.31;20995963;28;20052;-72
2024/01/27 15:48:17;;;;;;;4.78;2.42;;;;;;;20.11;48.12;103102.41;21008739;28;20048;-68
2024/01/27 15:58:20;;;;;;;6.70;2.22;;;;;;;20.07;48.71;103117.94;20997544;28;20078;-69
2024/01/27 16:08:22;;;;;;;26.45;9.48;;;;;;;19.94;53.01;103111.56;21002286;28;20059;-67
2024/01/27 16:18:23;;;;;;;29.35;8.98;;;;;;;20.06;58.15;103120.72;20979559;28;20060;-69
2024/01/27 16:28:27;;;;;;;20.38;8.15;;;;;;;20.08;58.42;103122.38;20968910;28;20048;-70
2024/01/27 16:38:29;;;;;;;17.80;7.30;;;;;;;20.02;60.88;103114.66;20954332;28;20051;-69
2024/01/27 16:48:31;;;;;;;15.25;6.40;;;;;;;20.04;63.38;103120.84;20962410;27;20138;-71
2024/01/27 16:58:32;;;;;;;14.07;5.93;;;;;;;20.29;63.02;103121.97;20962953;28;20355;-70
2024/01/27 17:08:34;;;;;;;13.30;5.75;;;;;;;20.27;62.45;103123.91;20963567;27;20052;-66
2024/01/27 17:19:02;;;;;;;11.95;5.68;;;;;;;20.22;60.78;103136.84;20959157;28;20072;-66
2024/01/27 17:29:04;;;;;;;7.07;3.53;;;;;;;20.00;57.99;103135.53;20957782;28;20056;-67
2024/01/27 17:39:06;;;;;;;8.27;4.00;;;;;;;19.64;55.82;103128.69;20943965;28;20557;-68
2024/01/27 17:49:08;;;;;;;7.93;3.20;;;;;;;19.46;55.72;103122.56;20956926;28;20047;-71
2024/01/27 17:59:10;;;;;;;8.50;3.40;;;;;;;19.33;59.51;103108.91;20944468;28;20067;-73
2024/01/27 18:09:12;;;;;;;5.28;2.63;;;;;;;19.23;57.74;103116.72;20955311;28;20146;-68
2024/01/27 18:19:16;;;;;;;4.95;2.22;;;;;;;19.18;56.50;103124.19;20939778;28;20788;-67
2024/01/27 18:29:22;;;;;;;5.57;2.70;;;;;;;19.09;55.47;103125.63;20963228;28;20055;-67
2024/01/27 18:39:23;;;;;;;4.32;2.40;;;;;;;19.04;55.11;103130.44;20968766;27;20044;-66
2024/01/27 18:49:25;;;;;;;3.45;2.10;;;;;;;18.91;54.73;103139.19;20951714;28;20228;-70
2024/01/27 18:59:27;;;;;;;4.75;1.77;;;;;;;18.78;54.47;103130.06;20959276;28;20651;-67
2024/01/27 19:09:29;;;;;;;4.53;2.05;;;;;;;18.65;53.83;103149.66;20990747;28;20052;-68
2024/01/27 19:19:31;;;;;;;4.53;1.77;;;;;;;18.48;53.49;103133.53;20996876;28;20052;-68
2024/01/27 19:29:33;;;;;;;7.53;2.05;;;;;;;18.32;53.05;103155.06;20983887;28;20063;-68
2024/01/27 19:39:35;;;;;;;4.30;1.77;;;;;;;18.23;52.41;103148.38;20977306;28;20063;-67
2024/01/27 19:49:40;;;;;;;6.18;2.30;;;;;;;18.11;51.87;103131.91;21002671;28;20384;-68
2024/01/27 19:59:42;;;;;;;4.63;2.15;;;;;;;18.06;51.45;103142.06;21007789;28;20044;-68
2024/01/27 20:09:44;;;;;;;5.05;1.98;;;;;;;17.99;50.93;103135.22;20998929;28;20048;-68
2024/01/27 20:19:48;;;;;;;3.15;2.05;;;;;;;17.95;50.38;103125.56;20988257;28;20067;-68
2024/01/27 20:29:50;;;;;;;3.80;2.17;;;;;;;17.90;49.92;103119.56;21009946;28;20049;-68
2024/01/27 20:39:52;;;;;;;5.30;2.47;;;;;;;17.75;52.53;103111.34;21007822;28;20048;-68
2024/01/27 20:49:54;;;;;;;5.53;2.60;;;;;;;17.59;54.24;103113.09;21008964;28;20462;-68
2024/01/27 20:59:56;;;;;;;5.38;2.65;;;;;;;17.60;54.04;103113.03;20993692;28;20047;-68
2024/01/27 21:09:58;;;;;;;5.40;2.40;;;;;;;17.62;53.54;103089.56;20984125;28;20492;-67
2024/01/27 21:19:59;;;;;;;4.00;2.50;;;;;;;17.62;53.26;103094.06;20999896;28;20053;-68
2024/01/27 21:30:02;;;;;;;4.47;2.03;;;;;;;17.51;52.74;103076.66;20990089;28;20465;-68
2024/01/27 21:40:07;;;;;;;3.13;2.00;;;;;;;17.58;52.29;103082.59;21002764;28;20405;-68
2024/01/27 21:50:09;;;;;;;4.30;2.50;;;;;;;17.46;51.84;103056.34;21004051;27;20048;-67
2024/01/27 22:00:11;;;;;;;3.10;2.13;;;;;;;17.50;51.54;103069.53;21004271;28;20496;-68
2024/01/27 22:10:14;;;;;;;3.45;2.00;;;;;;;17.45;51.10;103058.13;20986346;28;20059;-68
2024/01/27 22:20:16;;;;;;;3.88;2.15;;;;;;;17.44;50.77;103048.31;21014629;28;20135;-67
2024/01/27 22:30:17;;;;;;;3.88;2.03;;;;;;;17.40;50.37;103052.13;20963842;28;20044;-68
2024/01/27 22:40:20;;;;;;;4.07;2.20;;;;;;;17.36;50.21;103055.94;20998999;28;20050;-67
2024/01/27 22:50:22;;;;;;;4.13;2.50;;;;;;;17.27;50.04;103064.50;21014335;28;20412;-68
2024/01/27 23:00:32;;;;;;;2.88;1.77;;;;;;;17.19;49.64;103054.97;21003441;28;20055;-68
2024/01/27 23:10:36;;;;;;;4.25;2.13;;;;;;;17.17;49.42;103051.47;21007225;28;20060;-68
2024/01/27 23:20:38;;;;;;;4.53;2.30;;;;;;;17.14;49.06;103042.72;20964225;28;20624;-67
2024/01/27 23:30:40;;;;;;;5.60;2.47;;;;;;;17.12;49.10;103032.00;20999044;27;20496;-67
2024/01/27 23:40:42;;;;;;;4.43;2.40;;;;;;;17.09;48.98;103011.53;20962813;28;20102;-68
2024/01/27 23:50:45;;;;;;;5.95;2.85;;;;;;;17.04;48.73;103034.22;20994567;28;20104;-68
